• Join FlightAware (Why Join?)
  • Login
  • US Flag 
04:46PM EDT


 

Airport Tracker/Info


-or-


 

Live Flight TrackerFlight Track Log ✈ UPS2332 ✈ 23-Oct-2013 ✈ KSDF - KMIA

Flight Track Log - Related Links

Times and Time Zones

All times are in EDT time to prevent confusion due to time zone crossing. See the UPS2332 flight status page for this flight to view local times or setup timezone preferences in your user account.

Time Position Orientation Groundspeed Altitude Reporting Facility
EDT Latitude Longitude Course Direction KTS MPH feet Rate Location/Type
04:55PM 38.1833 -85.7500 334° Northwest 163 188 1,200  Level Louisville TRACON
04:57PM 38.2631 -85.7992 334° Northwest 238 274 5,000 2,220 Climbing Indianapolis Center
05:02PM 37.9460 -86.1970 334° Northwest 388 447 17,500 2,640 Climbing FlightAware
05:02PM 37.8900 -86.2410 212° Southwest 420 483 20,500 4,620 Climbing FlightAware
05:03PM 37.8570 -86.2520 195° South 434 499 21,200 2,580 Climbing FlightAware
05:04PM 37.7250 -86.2800 190° South 459 528 24,100 2,520 Climbing FlightAware
05:05PM 37.6130 -86.3020 189° South 468 539 26,100 2,040 Climbing FlightAware
05:06PM 37.4870 -86.3290 190° South 485 558 27,900 2,400 Climbing FlightAware
05:06PM 37.4100 -86.3440 189° South 470 541 29,800 2,700 Climbing FlightAware
05:07PM 37.3030 -86.3660 189° South 452 520 31,800 1,620 Climbing FlightAware
05:08PM 37.2415 -86.3793 190° South 453 521 32,000 1,080 Climbing FlightAware ADS-B
05:08PM 37.1465 -86.3989 189° South 454 522 33,200 1,440 Climbing FlightAware ADS-B
05:09PM 37.0854 -86.4112 189° South 433 498 33,900 840 Climbing FlightAware ADS-B
05:09PM 37.0250 -86.4240 190° South 445 512 34,100 1,080 Climbing FlightAware
05:10PM 36.9832 -86.4324 189° South 440 506 34,800 2,040 Climbing FlightAware ADS-B
05:10PM 36.9548 -86.4372 188° South 441 507 35,300 1,740 Climbing FlightAware ADS-B
05:10PM 36.9342 -86.4377 181° South 454 522 35,500 1,020 Climbing FlightAware ADS-B
05:11PM 36.8718 -86.4296 174° South 467 537 36,000 1,140 Climbing FlightAware ADS-B
05:11PM 36.8231 -86.4243 175° South 460 529 36,500 1,380 Climbing FlightAware ADS-B
05:11PM 36.7891 -86.4254 181° South 440 506 36,900 600 Climbing FlightAware ADS-B
05:12PM 36.7301 -86.4389 190° South 431 496 37,000 60 Climbing FlightAware ADS-B
05:12PM 36.6706 -86.4526 190° South 430 495 37,000  Level FlightAware ADS-B
05:13PM 36.5999 -86.4689 190° South 429 494 37,000  Level FlightAware ADS-B
05:13PM 36.5379 -86.4832 190° South 430 495 37,000  Level FlightAware ADS-B
05:14PM 36.4570 -86.5020 191° South 431 496 37,000  Level FlightAware
05:15PM 36.3260 -86.5260 188° South 446 513 37,000  Level FlightAware
05:16PM 36.2500 -86.5140 173° South 473 544 37,000  Level FlightAware
05:17PM 36.1282 -86.4658 162° South 481 554 37,000  Level FlightAware ADS-B
05:17PM 36.0639 -86.4393 162° South 481 554 37,000  Level FlightAware ADS-B
05:18PM 35.9977 -86.4124 162° South 479 551 37,000  Level FlightAware ADS-B
05:18PM 35.9346 -86.3869 162° South 479 551 37,000  Level FlightAware ADS-B
05:19PM 35.8640 -86.3587 162° South 478 550 37,000  Level FlightAware ADS-B
05:20PM 35.7652 -86.3194 162° South 477 549 37,000  Level FlightAware ADS-B
05:20PM 35.6980 -86.2927 162° South 476 548 37,000  Level FlightAware ADS-B
05:21PM 35.6008 -86.2542 162° South 475 547 37,000  Level FlightAware ADS-B
05:22PM 35.5200 -86.2220 162° South 474 545 37,000  Level FlightAware
05:23PM 35.4040 -86.1760 162° South 471 542 37,000  Level FlightAware
05:23PM 35.3213 -86.1437 162° South 472 543 37,000  Level FlightAware ADS-B
05:24PM 35.2580 -86.1190 162° South 471 542 37,000  Level FlightAware ADS-B
05:24PM 35.1947 -86.0941 162° South 472 543 37,000  Level FlightAware ADS-B
05:25PM 35.1317 -86.0694 162° South 472 543 37,000  Level FlightAware ADS-B
05:25PM 35.0667 -86.0439 162° South 473 544 37,000  Level FlightAware ADS-B
05:26PM 35.0029 -86.0190 162° South 472 543 37,000  Level FlightAware ADS-B
05:26PM 34.9403 -85.9946 162° South 473 544 37,000  Level FlightAware ADS-B
05:27PM 34.8766 -85.9698 162° South 472 543 37,000  Level FlightAware ADS-B
05:27PM 34.7941 -85.9376 162° South 469 540 37,000  Level FlightAware ADS-B
05:28PM 34.7222 -85.9097 162° South 467 537 37,000  Level FlightAware ADS-B
05:29PM 34.6510 -85.8822 162° South 467 537 37,000  Level FlightAware ADS-B
05:29PM 34.5836 -85.8562 162° South 465 535 37,000  Level FlightAware ADS-B
05:30PM 34.5152 -85.8298 162° South 464 534 37,000  Level FlightAware ADS-B
05:30PM 34.4494 -85.8044 162° South 464 534 37,000  Level FlightAware ADS-B
05:31PM 34.3852 -85.7797 162° South 463 533 37,000  Level FlightAware ADS-B
05:31PM 34.3183 -85.7541 162° South 463 533 37,000  Level FlightAware ADS-B
05:32PM 34.2530 -85.7291 162° South 462 532 37,000  Level FlightAware ADS-B
05:32PM 34.1842 -85.7027 162° South 462 532 37,000  Level FlightAware ADS-B
05:33PM 34.1380 -85.6840 161° South 462 532 37,000  Level FlightAware
05:33PM 34.0790 -85.6610 162° South 462 532 37,000  Level FlightAware
05:34PM 33.9760 -85.6200 162° South 462 532 37,000  Level FlightAware
05:35PM 33.8720 -85.5790 162° South 462 532 37,000  Level FlightAware
05:36PM 33.8080 -85.5540 162° South 462 532 37,000  Level FlightAware
05:36PM 33.7670 -85.5380 162° South 462 532 37,000  Level FlightAware
05:37PM 33.7040 -85.5140 162° South 462 532 37,000  Level FlightAware
05:38PM 33.6420 -85.4900 162° South 462 532 37,000  Level FlightAware
05:39PM 33.5380 -85.4490 162° South 462 532 37,000  Level FlightAware
05:40PM 33.2790 -85.3600 164° South 462 532 37,000  Level FlightAware
05:41PM 33.1410 -85.3090 163° South 462 532 37,000  Level FlightAware
05:41PM 33.1260 -85.3030 161° South 462 532 37,000  Level FlightAware
05:42PM 33.0310 -85.2680 163° South 462 532 37,000  Level FlightAware
05:43PM 32.8940 -85.2170 163° South 461 531 37,000  Level FlightAware
05:44PM 32.7510 -85.1640 163° South 458 527 37,000  Level FlightAware
05:45PM 32.7020 -85.1460 163° South 458 527 37,000  Level FlightAware
05:45PM 32.5850 -85.1030 163° South 457 526 37,000  Level FlightAware
05:46PM 32.5000 -85.0720 163° South 456 525 37,000  Level FlightAware
05:47PM 32.3980 -85.0340 163° South 457 526 37,000  Level FlightAware
05:48PM 32.2840 -84.9930 163° South 455 524 37,000  Level FlightAware
05:49PM 32.1720 -84.9520 163° South 454 522 37,000  Level FlightAware
05:49PM 32.1110 -84.9290 162° South 454 522 37,000  Level FlightAware
05:50PM 32.0300 -84.8980 162° South 454 522 37,000  Level FlightAware
05:51PM 31.9000 -84.8530 164° South 451 519 37,000  Level FlightAware
05:51PM 31.8720 -84.8430 163° South 451 519 37,000  Level FlightAware
05:52PM 31.8080 -84.8180 162° South 451 519 37,000  Level FlightAware
05:53PM 31.7470 -84.7950 162° South 451 519 37,000  Level FlightAware
05:53PM 31.6420 -84.7580 163° South 451 519 37,000  Level FlightAware
05:55PM 31.6590 -84.7650 341° North 451 519 37,000  Level FlightAware
05:56PM 31.3170 -84.6430 163° South 449 517 37,000  Level FlightAware
05:57PM 31.2190 -84.6090 163° South 449 517 37,000  Level FlightAware
05:57PM 31.1365 -84.5790 163° South 450 518 37,000  Level FlightAware ADS-B (KTLH)
05:58PM 31.0374 -84.5437 163° South 449 517 37,000  Level FlightAware ADS-B (KTLH)
05:59PM 30.8990 -84.4950 163° South 448 516 37,000  Level FlightAware
06:00PM 30.8871 -84.4905 162° South 449 517 37,000  Level FlightAware ADS-B (KTLH)
06:00PM 30.7830 -84.4530 163° South 447 514 37,000  Level FlightAware
06:01PM 30.6940 -84.4220 163° South 446 513 37,000  Level FlightAware
06:02PM 30.5930 -84.3870 163° South 446 513 37,000  Level FlightAware
06:03PM 30.4900 -84.3310 155° Southeast 466 536 37,000  Level FlightAware
06:04PM 30.3890 -84.2640 150° Southeast 468 539 37,000  Level FlightAware
06:05PM 30.3010 -84.2070 151° Southeast 467 537 37,000  Level FlightAware
06:05PM 30.2440 -84.1690 150° Southeast 467 537 37,000  Level FlightAware
06:06PM 30.1360 -84.0990 151° Southeast 467 537 37,000  Level FlightAware
06:07PM 30.0760 -84.0600 151° Southeast 466 536 37,000  Level FlightAware
06:07PM 29.9830 -83.9990 150° Southeast 466 536 37,000  Level FlightAware
06:08PM 29.9717 -83.9919 152° Southeast 467 537 37,000  Level FlightAware ADS-B (KTLH)
06:08PM 29.8670 -83.9240 151° Southeast 466 536 37,000  Level FlightAware
06:09PM 29.7600 -83.8550 151° Southeast 467 537 37,000  Level FlightAware
06:10PM 29.6580 -83.7890 151° Southeast 467 537 37,000  Level FlightAware
06:11PM 29.5640 -83.7290 151° Southeast 467 537 37,000  Level FlightAware
06:12PM 29.4670 -83.6670 151° Southeast 466 536 37,000  Level FlightAware
06:13PM 29.3570 -83.5960 151° Southeast 466 536 37,000  Level FlightAware
06:13PM 29.2980 -83.5580 151° Southeast 465 535 37,000  Level FlightAware
06:14PM 29.1930 -83.4920 151° Southeast 465 535 37,000  Level FlightAware
06:15PM 29.1220 -83.4460 150° Southeast 466 536 37,000  Level FlightAware
06:16PM 29.0540 -83.4030 151° Southeast 466 536 37,000  Level FlightAware
06:17PM 28.9580 -83.3420 151° Southeast 466 536 37,000  Level FlightAware
06:17PM 28.8570 -83.2810 152° Southeast 465 535 37,000  Level FlightAware
06:18PM 28.7790 -83.2350 153° Southeast 466 536 37,000  Level FlightAware
06:19PM 28.6660 -83.1680 153° Southeast 468 539 37,000  Level FlightAware
06:20PM 28.5560 -83.1020 152° Southeast 470 541 37,000  Level FlightAware
06:20PM 28.4990 -83.0680 152° Southeast 471 542 37,000  Level FlightAware
06:21PM 28.4110 -83.0160 153° Southeast 471 542 37,000  Level FlightAware
06:22PM 28.3200 -82.9630 153° Southeast 472 543 37,000  Level FlightAware
06:23PM 28.2080 -82.8970 153° Southeast 474 545 37,000  Level FlightAware
06:24PM 28.1160 -82.8420 152° Southeast 476 548 37,000  Level FlightAware
06:25PM 28.0170 -82.7840 153° Southeast 476 548 37,000  Level FlightAware
06:25PM 27.9560 -82.7570 159° South 469 540 37,000  Level FlightAware
06:26PM 27.8470 -82.7240 165° South 465 535 37,000  Level FlightAware
06:27PM 27.7560 -82.6990 166° South 467 537 37,000  Level FlightAware
06:28PM 27.6500 -82.6690 166° South 467 537 37,000  Level FlightAware
06:29PM 27.5280 -82.6330 165° South 467 537 37,000  Level FlightAware
06:29PM 27.4360 -82.6060 165° South 467 537 37,000  Level FlightAware
06:30PM 27.3160 -82.5710 165° South 467 537 37,000  Level FlightAware
06:31PM 27.2480 -82.5520 166° South 468 539 37,000  Level FlightAware
06:31PM 27.1730 -82.5300 165° South 469 540 37,000  Level FlightAware
06:32PM 27.0450 -82.4690 157° South 484 557 37,000  Level FlightAware
06:33PM 26.9440 -82.4060 151° Southeast 477 549 37,000  Level FlightAware
06:34PM 26.8530 -82.3510 152° Southeast 476 548 37,000  Level FlightAware
06:35PM 26.7660 -82.2970 151° Southeast 477 549 37,000  Level FlightAware
06:35PM 26.6950 -82.2550 152° Southeast 476 548 37,000 -180 Level FlightAware
06:36PM 26.5980 -82.1960 151° Southeast 480 552 36,800 -840 Descending FlightAware
06:37PM 26.5000 -82.1370 152° Southeast 482 555 35,600 -1,500 Descending FlightAware
06:37PM 26.4490 -82.1060 151° Southeast 491 565 35,000 -1,200 Descending FlightAware
06:38PM 26.3700 -82.0580 151° Southeast 490 564 34,300 -1,080 Descending FlightAware
06:39PM 26.2510 -81.9870 152° Southeast 480 552 33,200 -1,140 Descending FlightAware
06:40PM 26.1600 -81.9320 152° Southeast 478 550 32,400 -1,020 Descending FlightAware
06:41PM 26.0770 -81.8830 152° Southeast 474 545 31,700 -900 Descending FlightAware
06:41PM 25.9750 -81.8210 151° Southeast 472 543 31,000 -960 Descending FlightAware
06:42PM 25.8710 -81.7590 152° Southeast 463 533 30,100 -1,200 Descending FlightAware
06:43PM 25.8000 -81.7170 152° Southeast 475 547 29,200 -1,380 Descending FlightAware
06:43PM 25.7420 -81.6830 152° Southeast 475 547 28,600 -1,080 Descending FlightAware
06:44PM 25.6460 -81.6260 152° Southeast 473 544 27,800 -1,020 Descending FlightAware
06:45PM 25.5490 -81.5680 152° Southeast 472 543 26,900 -1,020 Descending FlightAware
06:46PM 25.4820 -81.5280 152° Southeast 462 532 26,400 -1,200 Descending FlightAware
06:47PM 25.3790 -81.4430 143° Southeast 460 529 25,000 -2,100 Descending FlightAware
06:47PM 25.3490 -81.3790 117° Southeast 471 542 23,300 -2,820 Descending FlightAware
06:48PM 25.3380 -81.3090 100° East 465 535 22,200 -2,160 Descending FlightAware
06:49PM 25.3400 -81.1960 89° East 451 519 20,500 -2,340 Descending FlightAware
06:50PM 25.3450 -81.0590 88° East 444 511 18,000 -2,400 Descending FlightAware
06:50PM 25.3620 -80.9580 79° East 431 496 16,400 -2,160 Descending FlightAware
06:51PM 25.3820 -80.8410 79° East 420 483 14,400 -1,860 Descending FlightAware
06:52PM 25.3890 -80.7990 80° East 406 467 14,100 -300 Descending FlightAware
06:52PM 25.4010 -80.7220 80° East 372 428 14,100 -240 Level FlightAware
06:53PM 25.4090 -80.6240 85° East 332 382 13,800 -660 Descending FlightAware
06:54PM 25.4140 -80.5730 84° East 328 377 13,200 -1,680 Descending FlightAware
06:54PM 25.4180 -80.5230 85° East 322 371 12,100 -2,400 Descending FlightAware
06:55PM 25.4260 -80.4300 85° East 317 365 9,700 -2,340 Descending FlightAware
06:55PM 25.4290 -80.3980 84° East 313 360 9,100 -1,320 Descending FlightAware
06:56PM 25.4430 -80.3440 74° East 276 318 8,500 -1,380 Descending FlightAware
06:56PM 25.4520 -80.3100 74° East 269 310 7,700 -1,920 Descending FlightAware
06:57PM 25.4590 -80.2850 73° East 266 306 7,100 -1,800 Descending FlightAware
06:57PM 25.4670 -80.2520 75° East 263 303 6,400 -1,680 Descending FlightAware
06:58PM 25.4760 -80.2200 73° East 258 297 5,700 -1,560 Descending FlightAware
06:58PM 25.4890 -80.1720 73° East 254 292 4,800 -1,320 Descending FlightAware
06:59PM 25.4980 -80.1370 74° East 250 288 4,300 -900 Descending FlightAware
06:59PM 25.5070 -80.1030 74° East 248 285 4,000 -300 Descending FlightAware
07:00PM 25.5170 -80.0660 73° East 242 278 4,000 60 Level FlightAware
07:00PM 25.5250 -80.0380 72° East 214 246 4,100  Climbing FlightAware
07:01PM 25.5320 -80.0100 75° East 216 249 4,000 -120 Descending FlightAware
07:01PM 25.5300 -79.9730 93° East 218 251 4,000  Level FlightAware
07:01PM 25.5440 -79.9580 44° Northeast 201 231 4,000 -420 Level FlightAware
07:02PM 25.5520 -79.9560 13° North 192 221 3,800 -840 Descending FlightAware
07:02PM 25.5850 -79.9590 355° North 177 204 3,400 -780 Descending FlightAware
07:03PM 25.6050 -79.9650 345° North 164 189 3,000 -420 Descending FlightAware
07:03PM 25.6230 -79.9860 314° West 167 192 3,000  Level FlightAware
07:04PM 25.6370 -80.0010 316° Northwest 165 190 3,000 120 Level FlightAware
07:04PM 25.6480 -80.0130 315° West 167 192 3,100  Climbing FlightAware
07:04PM 25.6570 -80.0270 305° West 172 198 3,000 -180 Descending FlightAware
07:05PM 25.6680 -80.0470 301° West 171 197 3,000  Level FlightAware
07:05PM 25.6760 -80.0620 301° West 171 197 3,000  Level FlightAware
07:05PM 25.6870 -80.0810 303° West 170 196 3,000  Level FlightAware
07:06PM 25.6980 -80.1050 297° West 172 198 3,000  Level FlightAware
07:06PM 25.7080 -80.1250 299° West 178 205 3,000 -360 Level FlightAware
07:07PM 25.7200 -80.1480 300° West 169 194 2,700 -780 Descending FlightAware
07:07PM 25.7300 -80.1670 300° West 150 173 2,300 -960 Descending FlightAware
07:08PM 25.7400 -80.1860 300° West 141 162 1,900 -780 Descending FlightAware
07:08PM 25.7460 -80.1990 297° West 142 163 1,700 -780 Descending FlightAware
07:09PM 25.7570 -80.2210 299° West 136 157 1,200 -780 Descending FlightAware
07:09PM 25.7640 -80.2340 301° West 143 165 1,000 -600 Descending FlightAware
07:09PM 25.7700 -80.2450 301° West 140 161 800 -840 Descending FlightAware
07:10PM 25.7790 -80.2630 299° West 145 167 400 -960 Descending FlightAware
07:10PM 25.7920 -80.2890 299° West 115 132 -660 Descending FlightAware